Indiana, PA

4:31 AM EST on February 11, 2016 (GMT -0500)
Indiana County-Stewart

Weather History for KIDI - October, 2012

Change the Weather History Date:

Monday, October 22, 2012

  Actual Average Record
Temperature  
Mean Temperature 50 °F -  
Max Temperature 68 °F 61 °F 81 °F (1979)
Min Temperature 33 °F 37 °F 18 °F (1952)
Degree Days  
Heating Degree Days 14    
Moisture  
Dew Point 44 °F    
Average Humidity 82    
Maximum Humidity 100    
Minimum Humidity 52    
Precipitation  
Precipitation 0.00 in - - ()
Sea Level Pressure  
Sea Level Pressure 30.16 in    
Wind  
Wind Speed 1 mph (WSW)    
Max Wind Speed 9 mph    
Max Gust Speed -    
Visibility 10 miles    
Events      
Averages and records for this station are not official NWS values.
T = Trace of Precipitation, MM = Missing Value Source: NWS Daily Summary

Daily Weather History Graph

Daily Weather History Graph

Search for Another Location

Airport or City:

Trip Planner

Search our weather history database for the weather conditions in past years. The results will help you decide how hot, cold, wet, or windy it might be!

Date:

Astronomy

Oct. 22, 2012 Rise Set
Actual Time 7:35 AM EDT 6:25 PM EDT
Civil Twilight 7:07 AM EDT 6:53 PM EDT
Nautical Twilight 6:35 AM EDT 7:25 PM EDT
Astronomical Twilight 6:04 AM EDT 7:56 PM EDT
Moon 2:34 PM EDT (10/22) 12:18 AM EDT (10/22)
Length of Visible Light 11h 45m
Length of Day
10h 49m
First Quarter, 56% of the Moon is Illuminated
Oct 22
First Quarter
Oct 29
Full
Nov 6
Last Quarter
Nov 13
New
Nov 20
First Quarter

Hourly Weather History & Observations

Time (EDT) Temp. Dew Point Humidity Pressure Visibility Wind Dir Wind Speed Gust Speed Precip Events Conditions
12:15 AM 37.4 °F 37.4 °F 100% 30.16 in 10.0 mi Calm Calm - N/A   Unknown
12:35 AM 37.4 °F 37.4 °F 100% 30.16 in 10.0 mi Calm Calm - N/A   Unknown
12:55 AM 37.4 °F 37.4 °F 100% 30.16 in 10.0 mi Calm Calm - N/A   Unknown
1:15 AM 37.4 °F 37.4 °F 100% 30.16 in 10.0 mi Calm Calm - N/A   Unknown
1:55 AM 35.6 °F 35.6 °F 100% 30.15 in 10.0 mi Calm Calm - N/A   Unknown
2:35 AM 37.4 °F 37.4 °F 100% 30.16 in 10.0 mi Calm Calm - N/A   Unknown
2:55 AM 35.6 °F 35.6 °F 100% 30.16 in 10.0 mi Calm Calm - N/A   Unknown
3:15 AM 35.6 °F 35.6 °F 100% 30.16 in 10.0 mi Calm Calm - N/A   Unknown
3:35 AM 35.6 °F 35.6 °F 100% 30.16 in 10.0 mi Calm Calm - N/A   Unknown
3:55 AM 35.6 °F 35.6 °F 100% 30.16 in 10.0 mi Calm Calm - N/A   Unknown
4:15 AM 35.6 °F 35.6 °F 100% 30.16 in 10.0 mi Calm Calm - N/A   Unknown
4:55 AM 35.6 °F 35.6 °F 100% 30.17 in 10.0 mi Calm Calm - N/A   Unknown
5:15 AM 35.6 °F 35.6 °F 100% 30.17 in 10.0 mi Calm Calm - N/A   Unknown
5:35 AM 33.8 °F 33.8 °F 100% 30.17 in 10.0 mi Calm Calm - N/A   Unknown
5:55 AM 35.6 °F 35.6 °F 100% 30.18 in 10.0 mi Calm Calm - N/A   Unknown
6:15 AM 33.8 °F 33.8 °F 100% 30.18 in 10.0 mi Calm Calm - N/A   Unknown
6:35 AM 33.8 °F 33.8 °F 100% 30.18 in 10.0 mi Calm Calm - N/A   Unknown
6:55 AM 35.6 °F 35.6 °F 100% 30.18 in 10.0 mi Calm Calm - N/A   Unknown
7:15 AM 35.6 °F 35.6 °F 100% 30.19 in 10.0 mi Calm Calm - N/A   Unknown
7:35 AM 33.8 °F 33.8 °F 100% 30.20 in 7.0 mi Calm Calm - N/A   Unknown
7:55 AM 35.6 °F 35.6 °F 100% 30.20 in 10.0 mi Calm Calm - N/A   Unknown
8:15 AM 35.6 °F 35.6 °F 100% 30.20 in 10.0 mi Calm Calm - N/A   Unknown
8:35 AM 37.4 °F 37.4 °F 100% 30.21 in 10.0 mi Calm Calm - N/A   Unknown
8:55 AM 42.8 °F 42.8 °F 100% 30.21 in 10.0 mi Calm Calm - N/A   Unknown
9:15 AM 44.6 °F 42.8 °F 93% 30.21 in 10.0 mi Calm Calm - N/A   Unknown
9:35 AM 46.4 °F 44.6 °F 93% 30.20 in 10.0 mi Calm Calm - N/A   Unknown
9:55 AM 48.2 °F 44.6 °F 87% 30.20 in 10.0 mi WSW 4.6 mph - N/A   Unknown
10:15 AM 50.0 °F 44.6 °F 82% 30.21 in 10.0 mi SW 5.8 mph - N/A   Unknown
10:35 AM 51.8 °F 44.6 °F 76% 30.21 in 10.0 mi WSW 4.6 mph - N/A   Unknown
10:55 AM 53.6 °F 44.6 °F 72% 30.20 in 10.0 mi WSW 4.6 mph - N/A   Unknown
11:15 AM 55.4 °F 46.4 °F 72% 30.20 in 10.0 mi West 3.5 mph - N/A   Unknown
11:35 AM 57.2 °F 46.4 °F 67% 30.20 in 10.0 mi West 4.6 mph - N/A   Unknown
11:55 AM 57.2 °F 46.4 °F 67% 30.20 in 10.0 mi West 3.5 mph - N/A   Unknown
12:15 PM 59.0 °F 46.4 °F 63% 30.19 in 10.0 mi Calm Calm - N/A   Unknown
12:35 PM 60.8 °F 46.4 °F 59% 30.19 in 10.0 mi WSW 4.6 mph - N/A   Unknown
12:55 PM 62.6 °F 46.4 °F 55% 30.18 in 10.0 mi Calm Calm - N/A   Unknown
1:15 PM 62.6 °F 48.2 °F 59% 30.17 in 10.0 mi WSW 5.8 mph - N/A   Unknown
1:35 PM 62.6 °F 48.2 °F 59% 30.17 in 10.0 mi SW 3.5 mph - N/A   Unknown
1:55 PM 64.4 °F 48.2 °F 56% 30.15 in 10.0 mi Calm Calm - N/A   Unknown
2:15 PM 64.4 °F 48.2 °F 56% 30.15 in 10.0 mi Calm Calm - N/A   Unknown
2:35 PM 66.2 °F 48.2 °F 52% 30.14 in 10.0 mi WSW 6.9 mph - N/A   Unknown
2:55 PM 66.2 °F 48.2 °F 52% 30.14 in 10.0 mi WNW 3.5 mph - N/A   Unknown
3:15 PM 66.2 °F 48.2 °F 52% 30.12 in 10.0 mi WSW 3.5 mph - N/A   Unknown
3:35 PM 66.2 °F 48.2 °F 52% 30.12 in 10.0 mi West 9.2 mph - N/A   Unknown
3:55 PM 68.0 °F 50.0 °F 52% 30.13 in 10.0 mi WSW 5.8 mph - N/A   Unknown
4:15 PM 68.0 °F 50.0 °F 52% 30.12 in 10.0 mi WSW 8.1 mph - N/A   Unknown
4:35 PM 68.0 °F 50.0 °F 52% 30.12 in 10.0 mi Calm Calm - N/A   Unknown
4:55 PM 68.0 °F 50.0 °F 52% 30.12 in 10.0 mi SW 8.1 mph - N/A   Unknown
5:15 PM 66.2 °F 51.8 °F 60% 30.13 in 10.0 mi WSW 6.9 mph - N/A   Unknown
5:35 PM 66.2 °F 51.8 °F 60% 30.13 in 10.0 mi WSW 6.9 mph - N/A   Unknown
5:55 PM 64.4 °F 51.8 °F 64% 30.13 in 10.0 mi WSW 3.5 mph - N/A   Unknown
6:15 PM 64.4 °F 51.8 °F 64% 30.13 in 10.0 mi Calm Calm - N/A   Unknown
6:35 PM 62.6 °F 50.0 °F 63% 30.14 in 10.0 mi Calm Calm - N/A   Unknown
6:55 PM 60.8 °F 50.0 °F 68% 30.14 in 10.0 mi Calm Calm - N/A   Unknown
7:15 PM 59.0 °F 51.8 °F 77% 30.14 in 10.0 mi Calm Calm - N/A   Unknown
7:35 PM 55.4 °F 50.0 °F 82% 30.14 in 10.0 mi Calm Calm - N/A   Unknown
7:55 PM 53.6 °F 50.0 °F 88% 30.14 in 10.0 mi Calm Calm - N/A   Unknown
8:15 PM 53.6 °F 50.0 °F 88% 30.14 in 7.0 mi Calm Calm - N/A   Unknown
8:35 PM 55.4 °F 50.0 °F 82% 30.14 in 10.0 mi Calm Calm - N/A   Unknown
8:55 PM 53.6 °F 51.8 °F 94% 30.13 in 10.0 mi Calm Calm - N/A   Unknown
9:15 PM 51.8 °F 50.0 °F 94% 30.13 in 10.0 mi Calm Calm - N/A   Unknown
9:55 PM 51.8 °F 50.0 °F 94% 30.13 in 10.0 mi Calm Calm - N/A   Unknown
10:15 PM 53.6 °F 51.8 °F 94% 30.12 in 10.0 mi Calm Calm - N/A   Unknown
10:35 PM 51.8 °F 50.0 °F 94% 30.12 in 10.0 mi Calm Calm - N/A   Unknown
10:55 PM 51.8 °F 50.0 °F 94% 30.12 in 10.0 mi Calm Calm - N/A   Unknown
11:15 PM 51.8 °F 50.0 °F 94% 30.12 in 10.0 mi Calm Calm - N/A   Unknown
11:35 PM 51.8 °F 51.8 °F 100% 30.12 in 10.0 mi Calm Calm - N/A   Unknown
11:55 PM 51.8 °F 50.0 °F 94% 30.10 in 10.0 mi Calm Calm - N/A   Unknown